Time;durP1;ratioP1;P1;durP2;ratioP2;P2;SDS_P1;SDS_P2;PMS_P1;PMS_P2;Temp;Humidity;BMP_temperature;BMP_pressure;BME280_temperature;BME280_humidity;BME280_pressure;Samples;Min_cycle;Max_cycle;Signal;HPM_P1;HPM_P2
2020/12/28 00:02:08;;;;;;;11.63;6.45;;;4.20;99.90;;;;;;5108189;28;20050;-64
2020/12/28 00:04:34;;;;;;;10.68;5.72;;;4.20;99.90;;;;;;5081876;28;20012;-64
2020/12/28 00:07:00;;;;;;;14.15;7.18;;;4.20;99.90;;;;;;5098817;28;20066;-64
2020/12/28 00:09:26;;;;;;;7.63;5.90;;;4.10;99.90;;;;;;5087622;28;20052;-64
2020/12/28 00:11:56;;;;;;;12.18;7.60;;;4.10;99.90;;;;;;5090823;28;20078;-64
2020/12/28 00:14:25;;;;;;;9.63;7.20;;;4.10;99.90;;;;;;5088242;28;20024;-64
2020/12/28 00:16:51;;;;;;;7.68;7.00;;;4.10;99.90;;;;;;5080316;28;20016;-64
2020/12/28 00:19:17;;;;;;;13.63;8.15;;;4.10;99.90;;;;;;5091336;28;20019;-64
2020/12/28 00:21:43;;;;;;;13.43;8.40;;;4.20;99.90;;;;;;5100927;28;20023;-64
2020/12/28 00:24:09;;;;;;;13.50;8.00;;;4.10;99.90;;;;;;5088261;28;20016;-64
2020/12/28 00:26:39;;;;;;;16.38;9.43;;;4.00;99.90;;;;;;5100025;28;20039;-64
2020/12/28 00:29:06;;;;;;;13.40;8.93;;;4.00;99.90;;;;;;5085823;28;20024;-64
2020/12/28 00:31:31;;;;;;;10.15;9.00;;;4.00;99.90;;;;;;5100866;28;20028;-64
2020/12/28 00:33:58;;;;;;;14.90;9.10;;;4.00;99.90;;;;;;5087478;28;20043;-64
2020/12/28 00:36:24;;;;;;;11.95;8.40;;;3.80;99.90;;;;;;5099674;28;20047;-64
2020/12/28 00:38:49;;;;;;;12.45;9.30;;;3.90;99.90;;;;;;5092003;28;20055;-64
2020/12/28 00:41:15;;;;;;;10.77;8.98;;;3.90;99.90;;;;;;5085374;28;20417;-65
2020/12/28 00:43:42;;;;;;;11.52;8.00;;;3.80;99.90;;;;;;5082898;28;20052;-64
2020/12/28 00:46:08;;;;;;;9.65;7.82;;;3.60;99.90;;;;;;5083127;28;20063;-64
2020/12/28 00:48:34;;;;;;;9.07;8.18;;;3.70;99.90;;;;;;5083221;28;20028;-64
2020/12/28 00:51:01;;;;;;;13.80;8.45;;;3.70;99.90;;;;;;5080343;28;20510;-64
2020/12/28 00:53:28;;;;;;;14.02;8.20;;;3.70;99.90;;;;;;5083408;28;20028;-64
2020/12/28 00:55:54;;;;;;;9.95;8.07;;;3.90;99.90;;;;;;5079506;28;20545;-64
2020/12/28 00:58:20;;;;;;;10.57;6.57;;;3.80;99.90;;;;;;5086912;28;20024;-64
2020/12/28 01:00:45;;;;;;;13.02;8.30;;;3.90;99.90;;;;;;5085278;28;20652;-64
2020/12/28 01:03:11;;;;;;;8.75;7.15;;;3.80;99.90;;;;;;5087398;28;20047;-64
2020/12/28 01:05:37;;;;;;;10.05;7.53;;;3.80;99.90;;;;;;5079486;28;20021;-64
2020/12/28 01:08:02;;;;;;;9.13;6.63;;;3.80;99.90;;;;;;5085953;28;20024;-65
2020/12/28 01:10:28;;;;;;;10.48;7.72;;;3.90;99.90;;;;;;5068354;28;20029;-64
2020/12/28 01:12:54;;;;;;;8.57;6.30;;;3.90;99.90;;;;;;5082718;28;20153;-64
2020/12/28 01:15:19;;;;;;;8.80;5.85;;;3.90;99.90;;;;;;5077084;28;20500;-65
2020/12/28 01:17:45;;;;;;;6.95;6.00;;;4.00;99.90;;;;;;5087661;28;20031;-65
2020/12/28 01:20:11;;;;;;;7.03;6.13;;;3.90;99.90;;;;;;5100626;28;20035;-64
2020/12/28 01:22:37;;;;;;;6.10;5.05;;;4.10;99.90;;;;;;5104904;28;20037;-64
2020/12/28 01:25:03;;;;;;;6.63;5.80;;;4.10;99.90;;;;;;5090152;28;20087;-64
2020/12/28 01:27:29;;;;;;;8.43;5.80;;;4.10;99.90;;;;;;5084319;28;20161;-64
2020/12/28 01:29:54;;;;;;;6.38;5.65;;;4.30;99.90;;;;;;5087252;28;20459;-64
2020/12/28 01:32:20;;;;;;;8.48;5.50;;;4.30;99.90;;;;;;5095122;28;20114;-64
2020/12/28 01:34:46;;;;;;;5.38;4.82;;;4.30;99.90;;;;;;5080148;28;20506;-65
2020/12/28 01:37:11;;;;;;;3.80;3.47;;;4.30;99.90;;;;;;5102174;28;20036;-64
2020/12/28 01:39:38;;;;;;;3.60;3.30;;;4.50;99.90;;;;;;5081207;28;20063;-64
2020/12/28 01:42:04;;;;;;;5.35;3.53;;;4.70;99.90;;;;;;5103855;28;20028;-65
2020/12/28 01:44:29;;;;;;;3.60;2.85;;;4.80;99.90;;;;;;5078548;28;20446;-64
2020/12/28 01:46:55;;;;;;;3.40;3.00;;;4.80;99.90;;;;;;5079244;28;20111;-64
2020/12/28 01:49:21;;;;;;;5.95;2.78;;;4.90;99.90;;;;;;5083874;28;20069;-64
2020/12/28 01:51:47;;;;;;;3.38;3.08;;;4.90;99.90;;;;;;5105300;28;20023;-65
2020/12/28 01:54:12;;;;;;;4.85;3.28;;;5.00;99.90;;;;;;5090641;28;20032;-64
2020/12/28 01:56:39;;;;;;;5.13;3.63;;;4.90;99.90;;;;;;5104103;28;20089;-64
2020/12/28 01:59:06;;;;;;;3.30;3.03;;;4.90;99.90;;;;;;5089286;28;20025;-64
2020/12/28 02:01:38;;;;;;;3.22;2.92;;;4.90;99.90;;;;;;5100799;28;20260;-64
2020/12/28 02:04:04;;;;;;;3.50;2.35;;;5.20;99.90;;;;;;5092046;28;20388;-64
2020/12/28 02:06:30;;;;;;;4.00;2.92;;;5.10;99.90;;;;;;5088271;28;20024;-64
2020/12/28 02:08:55;;;;;;;3.90;2.75;;;5.00;99.90;;;;;;5084546;28;20028;-64
2020/12/28 02:11:21;;;;;;;2.85;2.55;;;5.10;99.90;;;;;;5081921;28;20027;-64
2020/12/28 02:13:47;;;;;;;4.47;2.97;;;5.10;99.90;;;;;;5083440;28;20029;-65
2020/12/28 02:16:12;;;;;;;2.65;2.45;;;5.10;99.90;;;;;;5083266;28;20123;-65
2020/12/28 02:18:38;;;;;;;3.25;2.80;;;5.10;99.90;;;;;;5086399;28;20028;-65
2020/12/28 02:21:04;;;;;;;3.97;3.08;;;4.90;99.90;;;;;;5092568;28;20036;-64
2020/12/28 02:23:29;;;;;;;4.00;2.85;;;5.00;99.90;;;;;;5086195;28;20055;-64
2020/12/28 02:25:55;;;;;;;3.42;3.13;;;5.00;99.90;;;;;;5092786;28;20055;-64
2020/12/28 02:28:20;;;;;;;3.20;3.00;;;5.10;99.90;;;;;;5086420;28;20017;-64
2020/12/28 02:30:46;;;;;;;3.60;3.25;;;4.90;99.90;;;;;;5085285;28;20031;-65
2020/12/28 02:33:12;;;;;;;6.60;2.90;;;5.00;99.90;;;;;;5087690;28;20024;-64
2020/12/28 02:35:37;;;;;;;3.00;2.75;;;5.10;99.90;;;;;;5083283;28;20028;-64
2020/12/28 02:38:03;;;;;;;3.33;2.90;;;5.10;99.90;;;;;;5088500;28;20020;-65
2020/12/28 02:40:29;;;;;;;5.85;3.35;;;5.10;99.90;;;;;;5080650;28;20052;-64
2020/12/28 02:42:54;;;;;;;3.90;3.55;;;5.20;99.90;;;;;;5089395;28;20031;-64
2020/12/28 02:45:20;;;;;;;3.20;2.90;;;5.10;99.90;;;;;;5084872;28;20127;-64
2020/12/28 02:47:46;;;;;;;4.00;3.28;;;5.00;99.90;;;;;;5086008;28;20020;-64
2020/12/28 02:50:11;;;;;;;5.32;3.35;;;5.10;99.90;;;;;;5079700;28;20029;-64
2020/12/28 02:52:37;;;;;;;5.18;3.92;;;4.90;99.90;;;;;;5085364;28;20081;-64
2020/12/28 02:55:03;;;;;;;3.97;3.58;;;5.00;99.90;;;;;;5081459;28;20081;-64
2020/12/28 02:57:28;;;;;;;4.75;3.40;;;5.00;99.90;;;;;;5107292;28;20564;-65
2020/12/28 02:59:54;;;;;;;4.63;4.18;;;5.00;99.90;;;;;;5091470;28;20618;-64
2020/12/28 03:02:19;;;;;;;4.90;4.50;;;5.00;99.90;;;;;;5102400;28;20031;-64
2020/12/28 03:04:45;;;;;;;4.65;4.15;;;5.10;99.90;;;;;;5096376;28;20125;-64
2020/12/28 03:07:11;;;;;;;5.70;4.15;;;5.00;99.90;;;;;;5107935;28;20519;-64
2020/12/28 03:09:36;;;;;;;4.35;3.95;;;4.90;99.90;;;;;;5091646;28;20027;-64
2020/12/28 03:12:02;;;;;;;4.57;4.13;;;5.10;99.90;;;;;;5105213;28;20051;-64
2020/12/28 03:14:27;;;;;;;4.82;4.35;;;5.00;99.90;;;;;;5092250;28;20641;-64
2020/12/28 03:16:53;;;;;;;4.80;4.40;;;4.90;99.90;;;;;;5096036;28;20030;-64
2020/12/28 03:19:19;;;;;;;5.10;4.63;;;5.10;99.90;;;;;;5088657;28;20027;-64
2020/12/28 03:21:44;;;;;;;4.80;4.25;;;5.00;99.90;;;;;;5102158;28;20066;-64
2020/12/28 03:24:10;;;;;;;4.40;4.00;;;4.90;99.90;;;;;;5091068;28;20024;-63
2020/12/28 03:26:36;;;;;;;3.45;3.15;;;5.00;99.90;;;;;;5100010;28;20020;-64
2020/12/28 03:29:01;;;;;;;5.13;3.38;;;5.10;99.90;;;;;;5090384;28;20055;-64
2020/12/28 03:31:28;;;;;;;7.00;3.70;;;5.10;99.90;;;;;;5093461;28;20035;-64
2020/12/28 03:33:54;;;;;;;7.47;3.58;;;5.00;99.90;;;;;;5086122;28;20032;-64
2020/12/28 03:36:20;;;;;;;2.47;2.00;;;5.10;99.90;;;;;;5093540;28;20032;-64
2020/12/28 03:38:46;;;;;;;1.67;0.68;;;5.30;99.90;;;;;;5085160;28;20028;-64
2020/12/28 03:41:13;;;;;;;2.58;0.70;;;5.30;99.90;;;;;;5094562;28;20093;-64
2020/12/28 03:43:39;;;;;;;0.30;0.30;;;5.50;99.90;;;;;;5097504;28;20028;-63
2020/12/28 03:46:04;;;;;;;1.33;0.43;;;5.50;99.90;;;;;;5085312;28;20028;-64
2020/12/28 03:48:30;;;;;;;1.35;0.30;;;5.60;99.90;;;;;;5098685;28;20024;-64
2020/12/28 03:50:56;;;;;;;1.60;0.30;;;5.40;99.90;;;;;;5095947;28;20032;-64
2020/12/28 03:53:22;;;;;;;0.20;0.20;;;5.10;99.90;;;;;;5094226;28;20028;-64
2020/12/28 03:55:47;;;;;;;0.45;0.30;;;4.80;99.90;;;;;;5100243;28;20514;-64
2020/12/28 03:58:13;;;;;;;0.50;0.30;;;4.80;99.90;;;;;;5102344;28;20035;-64
2020/12/28 04:00:39;;;;;;;0.80;0.28;;;4.80;99.90;;;;;;5098136;28;20475;-64
2020/12/28 04:03:05;;;;;;;0.30;0.30;;;4.70;99.90;;;;;;5093902;28;20024;-64
2020/12/28 04:05:31;;;;;;;0.30;0.30;;;4.70;99.90;;;;;;5081402;28;20025;-64
2020/12/28 04:07:56;;;;;;;0.95;0.35;;;4.60;99.90;;;;;;5084379;28;20051;-64
2020/12/28 04:10:22;;;;;;;1.15;0.55;;;4.70;99.90;;;;;;5082843;28;20032;-64
2020/12/28 04:12:48;;;;;;;1.35;0.35;;;4.80;99.90;;;;;;5088630;28;20024;-64
2020/12/28 04:15:13;;;;;;;1.70;0.35;;;4.70;99.90;;;;;;5083958;28;20032;-64
2020/12/28 04:17:39;;;;;;;0.60;0.22;;;4.80;99.90;;;;;;5088620;28;20051;-64
2020/12/28 04:20:05;;;;;;;1.13;0.40;;;4.80;99.90;;;;;;5086172;28;20039;-64
2020/12/28 04:22:30;;;;;;;0.80;0.40;;;4.80;99.90;;;;;;5089076;28;20106;-64
2020/12/28 04:24:56;;;;;;;3.80;0.40;;;4.80;99.90;;;;;;5080623;28;20021;-63
2020/12/28 04:27:22;;;;;;;0.75;0.20;;;4.70;99.90;;;;;;5087401;28;20028;-64
2020/12/28 04:29:48;;;;;;;0.30;0.20;;;4.70;99.90;;;;;;5081885;28;20028;-64
2020/12/28 04:32:14;;;;;;;0.20;0.20;;;4.70;99.90;;;;;;5085841;28;20016;-64
2020/12/28 04:34:40;;;;;;;0.68;0.30;;;4.80;99.90;;;;;;5081897;28;20447;-64
2020/12/28 04:37:06;;;;;;;0.60;0.20;;;4.80;99.90;;;;;;5088870;28;20551;-64
2020/12/28 04:39:32;;;;;;;0.68;0.20;;;4.80;99.90;;;;;;5082438;28;20115;-64
2020/12/28 04:41:57;;;;;;;0.40;0.32;;;4.90;99.90;;;;;;5081602;28;20035;-63
2020/12/28 04:44:23;;;;;;;0.85;0.40;;;4.70;99.90;;;;;;5083559;28;20023;-64
2020/12/28 04:46:49;;;;;;;0.43;0.20;;;4.90;99.90;;;;;;5092591;28;20023;-64
2020/12/28 04:49:15;;;;;;;0.88;0.30;;;4.80;99.90;;;;;;5085460;28;20063;-64
2020/12/28 04:51:41;;;;;;;0.20;0.20;;;4.70;99.90;;;;;;5106624;28;20047;-64
2020/12/28 04:54:07;;;;;;;1.27;0.38;;;4.60;99.90;;;;;;5089826;28;20133;-64
2020/12/28 04:56:36;;;;;;;1.08;0.70;;;4.60;99.90;;;;;;5097637;28;20536;-64
2020/12/28 04:59:02;;;;;;;0.85;0.20;;;4.50;99.90;;;;;;5090850;28;20035;-64
2020/12/28 05:01:27;;;;;;;0.35;0.30;;;4.50;99.90;;;;;;5092763;28;20047;-64
2020/12/28 05:03:54;;;;;;;1.52;0.30;;;4.40;99.90;;;;;;5091951;28;20032;-64
2020/12/28 05:06:20;;;;;;;0.60;0.30;;;4.50;99.90;;;;;;5087409;28;20028;-63
2020/12/28 05:08:45;;;;;;;0.77;0.40;;;4.40;99.90;;;;;;5091161;28;20025;-64
2020/12/28 05:11:15;;;;;;;0.80;0.50;;;4.30;99.90;;;;;;5098028;28;20114;-64
2020/12/28 05:13:49;;;;;;;1.13;0.40;;;4.40;99.90;;;;;;5100050;28;20016;-64
2020/12/28 05:16:15;;;;;;;1.55;0.50;;;4.30;99.90;;;;;;5088386;28;20034;-64
2020/12/28 05:18:41;;;;;;;0.80;0.43;;;4.40;99.90;;;;;;5097417;28;20506;-64
2020/12/28 05:21:07;;;;;;;0.90;0.50;;;4.30;99.90;;;;;;5100882;28;20044;-63
2020/12/28 05:23:33;;;;;;;2.17;0.50;;;4.30;99.90;;;;;;5096376;28;20027;-63
2020/12/28 05:25:59;;;;;;;0.50;0.32;;;4.20;99.90;;;;;;5087572;28;20027;-64
2020/12/28 05:28:28;;;;;;;3.53;0.40;;;4.40;99.90;;;;;;5100859;28;20023;-63
2020/12/28 05:30:59;;;;;;;1.80;0.40;;;4.50;99.90;;;;;;5110079;28;20024;-64
2020/12/28 05:33:32;;;;;;;1.23;0.60;;;4.50;99.90;;;;;;5073216;28;20024;-64
2020/12/28 05:35:58;;;;;;;2.25;0.40;;;4.50;99.90;;;;;;5080419;28;20523;-66
2020/12/28 05:38:26;;;;;;;5.35;0.40;;;4.50;99.90;;;;;;5097799;28;20020;-64
2020/12/28 05:41:02;;;;;;;2.50;0.60;;;4.50;99.90;;;;;;5084181;28;20044;-64
2020/12/28 05:43:30;;;;;;;3.63;0.95;;;4.60;99.90;;;;;;5092438;28;20533;-63
2020/12/28 05:45:56;;;;;;;3.03;0.60;;;4.70;99.90;;;;;;5089636;28;20055;-64
2020/12/28 05:48:25;;;;;;;2.75;0.65;;;4.60;99.90;;;;;;5098247;28;20480;-64
2020/12/28 05:51:00;;;;;;;3.00;0.70;;;4.70;99.90;;;;;;5092260;28;20058;-64
2020/12/28 05:53:26;;;;;;;1.77;0.70;;;4.60;99.90;;;;;;5101887;28;20494;-64
2020/12/28 05:55:52;;;;;;;4.90;0.90;;;4.80;99.90;;;;;;5098887;28;20140;-67
2020/12/28 05:58:20;;;;;;;2.28;0.50;;;4.80;99.90;;;;;;5100865;28;20374;-64
2020/12/28 06:00:48;;;;;;;2.80;0.57;;;4.70;99.90;;;;;;5098249;28;20578;-64
2020/12/28 06:03:23;;;;;;;1.98;0.52;;;4.70;99.90;;;;;;5096771;28;20024;-64
2020/12/28 06:05:54;;;;;;;2.05;0.60;;;4.70;99.90;;;;;;5093668;28;20019;-64
2020/12/28 06:08:20;;;;;;;4.03;0.80;;;4.80;99.90;;;;;;5088686;28;20107;-64
2020/12/28 06:10:46;;;;;;;1.67;0.50;;;4.80;99.90;;;;;;5092274;28;20476;-64
2020/12/28 06:13:22;;;;;;;3.08;0.50;;;4.70;99.90;;;;;;5097692;28;20496;-63
2020/12/28 06:15:59;;;;;;;4.60;0.95;;;4.50;99.90;;;;;;5084178;28;20059;-68
2020/12/28 06:18:25;;;;;;;3.05;0.50;;;4.30;99.90;;;;;;5082753;28;20034;-64
2020/12/28 06:20:51;;;;;;;1.60;0.40;;;4.40;99.90;;;;;;5078079;28;20052;-64
2020/12/28 06:23:25;;;;;;;2.97;0.75;;;4.40;99.90;;;;;;5085156;28;20020;-64
2020/12/28 06:25:56;;;;;;;2.30;0.60;;;4.30;99.90;;;;;;5080571;28;20016;-64
2020/12/28 06:28:26;;;;;;;3.80;0.73;;;4.40;99.90;;;;;;5083225;28;20638;-64
2020/12/28 06:30:53;;;;;;;4.53;0.90;;;4.30;99.90;;;;;;5077118;28;20020;-72
2020/12/28 06:33:18;;;;;;;3.72;1.17;;;4.80;99.90;;;;;;5080611;28;20029;-62
2020/12/28 06:35:45;;;;;;;4.20;1.42;;;4.50;99.90;;;;;;5082561;28;20134;-62
2020/12/28 06:38:11;;;;;;;3.53;1.20;;;4.50;99.90;;;;;;5061320;28;20044;-67
2020/12/28 06:40:39;;;;;;;8.38;1.35;;;4.30;99.90;;;;;;5069692;28;20102;-63
2020/12/28 06:43:13;;;;;;;3.72;0.90;;;4.70;99.90;;;;;;5071023;28;20166;-63
2020/12/28 06:45:40;;;;;;;4.70;0.65;;;4.60;99.90;;;;;;5080023;28;20114;-63
2020/12/28 06:48:17;;;;;;;6.18;0.80;;;4.30;99.90;;;;;;5084587;28;20017;-62
2020/12/28 06:50:42;;;;;;;1.90;0.50;;;4.30;99.90;;;;;;5084659;28;20032;-63
2020/12/28 06:53:08;;;;;;;2.80;0.47;;;4.30;99.90;;;;;;5073497;28;20066;-62
2020/12/28 06:55:34;;;;;;;1.17;0.57;;;4.40;99.90;;;;;;5090919;28;20020;-62
2020/12/28 06:58:03;;;;;;;2.40;0.65;;;4.40;99.90;;;;;;5082689;28;20031;-61
2020/12/28 07:00:28;;;;;;;1.02;0.50;;;4.40;99.90;;;;;;5089145;28;20495;-63
2020/12/28 07:02:55;;;;;;;3.50;0.73;;;4.40;99.90;;;;;;5089193;28;20052;-63
2020/12/28 07:05:26;;;;;;;1.75;0.43;;;4.50;99.90;;;;;;5088019;28;20035;-66
2020/12/28 07:07:52;;;;;;;4.50;1.02;;;4.40;99.90;;;;;;5089117;28;20028;-63
2020/12/28 07:10:22;;;;;;;2.45;0.43;;;4.30;99.90;;;;;;5086554;28;20019;-63
2020/12/28 07:12:48;;;;;;;1.23;0.50;;;4.40;99.90;;;;;;5075292;28;20523;-63
2020/12/28 07:15:16;;;;;;;2.42;0.50;;;4.40;99.90;;;;;;5070883;28;20544;-63
2020/12/28 07:17:41;;;;;;;1.98;0.60;;;4.50;99.90;;;;;;5088834;28;20511;-63
2020/12/28 07:20:12;;;;;;;0.93;0.75;;;4.40;99.90;;;;;;5086471;28;20028;-63
2020/12/28 07:22:40;;;;;;;1.08;0.35;;;4.30;99.90;;;;;;5088291;28;20012;-63
2020/12/28 07:25:07;;;;;;;2.72;0.50;;;4.40;99.90;;;;;;5088682;28;20032;-63
2020/12/28 07:27:34;;;;;;;2.03;0.43;;;4.30;99.90;;;;;;5090396;28;20484;-63
2020/12/28 07:30:06;;;;;;;3.30;0.60;;;4.30;99.90;;;;;;5090871;28;20102;-63
2020/12/28 07:32:32;;;;;;;2.65;0.60;;;4.30;99.90;;;;;;5090061;28;20107;-65
2020/12/28 07:34:57;;;;;;;1.42;0.52;;;4.30;99.90;;;;;;5088103;28;20077;-63
2020/12/28 07:37:23;;;;;;;1.73;0.63;;;4.20;99.90;;;;;;5091166;28;20070;-63
2020/12/28 07:39:50;;;;;;;2.92;0.80;;;4.30;99.90;;;;;;5084967;28;20094;-63
2020/12/28 07:42:20;;;;;;;5.75;1.17;;;4.30;99.90;;;;;;5091301;28;20043;-63
2020/12/28 07:44:55;;;;;;;5.78;1.00;;;4.20;99.90;;;;;;5086113;28;20031;-64
2020/12/28 07:47:26;;;;;;;1.85;0.90;;;4.30;99.90;;;;;;5091244;28;20103;-63
2020/12/28 07:49:59;;;;;;;10.75;1.63;;;4.10;99.90;;;;;;5089683;28;20383;-64
2020/12/28 07:52:27;;;;;;;3.97;1.27;;;4.20;99.90;;;;;;5089985;28;20020;-63
2020/12/28 07:55:07;;;;;;;3.75;0.90;;;4.30;99.90;;;;;;5087419;28;20103;-64
2020/12/28 07:57:44;;;;;;;5.65;1.40;;;4.30;99.90;;;;;;5089545;28;20031;-63
2020/12/28 08:00:16;;;;;;;5.30;0.88;;;4.30;99.90;;;;;;5089388;28;20036;-63
2020/12/28 08:03:06;;;;;;;3.17;1.02;;;4.30;99.90;;;;;;5089050;28;20125;-63
2020/12/28 08:05:34;;;;;;;2.78;0.90;;;4.30;99.90;;;;;;5088078;28;20118;-63
2020/12/28 08:08:00;;;;;;;3.20;1.00;;;4.40;99.90;;;;;;5086756;28;20021;-63
2020/12/28 08:10:26;;;;;;;1.77;0.65;;;4.40;99.90;;;;;;5087271;28;20031;-63
2020/12/28 08:13:01;;;;;;;2.50;0.88;;;4.40;99.90;;;;;;5088498;28;20081;-64
2020/12/28 08:15:32;;;;;;;4.38;0.85;;;4.40;99.90;;;;;;5090419;28;20043;-67
2020/12/28 08:18:07;;;;;;;3.47;0.93;;;4.40;99.90;;;;;;5085645;28;20086;-66
2020/12/28 08:20:33;;;;;;;1.95;0.80;;;4.50;99.90;;;;;;5081665;28;20055;-66
2020/12/28 08:22:58;;;;;;;4.20;0.93;;;4.40;99.90;;;;;;5087515;28;20074;-66
2020/12/28 08:25:31;;;;;;;1.83;1.35;;;4.50;99.90;;;;;;5072004;28;20029;-66
2020/12/28 08:27:59;;;;;;;3.13;1.05;;;4.40;99.90;;;;;;5086442;28;20020;-66
2020/12/28 08:30:29;;;;;;;3.25;1.10;;;4.50;99.90;;;;;;5087010;28;20124;-66
2020/12/28 08:32:59;;;;;;;6.03;1.33;;;4.50;99.90;;;;;;5077436;28;20020;-66
2020/12/28 08:35:25;;;;;;;7.15;0.90;;;4.50;99.90;;;;;;5081640;28;20044;-66
2020/12/28 08:37:52;;;;;;;7.53;1.48;;;4.70;99.90;;;;;;5087494;28;20404;-67
2020/12/28 08:40:23;;;;;;;6.35;1.20;;;4.50;99.90;;;;;;5081861;28;20041;-65
2020/12/28 08:42:53;;;;;;;4.22;1.27;;;4.70;99.90;;;;;;5085178;28;20494;-65
2020/12/28 08:45:27;;;;;;;3.15;1.52;;;4.70;99.90;;;;;;5082961;28;20028;-65
2020/12/28 08:47:57;;;;;;;5.20;1.73;;;4.70;99.90;;;;;;5085739;28;20039;-66
2020/12/28 08:50:24;;;;;;;8.60;3.50;;;4.60;99.90;;;;;;5083949;28;20064;-65
2020/12/28 08:52:54;;;;;;;4.40;1.40;;;4.60;99.90;;;;;;5085592;28;20031;-65
2020/12/28 08:55:20;;;;;;;5.53;2.83;;;4.60;99.90;;;;;;5077574;28;20170;-65
2020/12/28 08:57:59;;;;;;;5.88;1.50;;;4.70;99.90;;;;;;5082918;28;20020;-65
2020/12/28 09:00:26;;;;;;;5.57;1.70;;;4.60;99.90;;;;;;5077506;28;20037;-65
2020/12/28 09:02:56;;;;;;;2.75;1.05;;;4.80;99.90;;;;;;5085364;28;20736;-65
2020/12/28 09:05:23;;;;;;;2.70;1.20;;;4.80;99.90;;;;;;5086864;28;20020;-65
2020/12/28 09:07:49;;;;;;;7.00;1.30;;;4.70;99.90;;;;;;5084975;28;20024;-65
2020/12/28 09:10:15;;;;;;;1.35;0.80;;;4.70;99.90;;;;;;5087741;28;20028;-65
2020/12/28 09:12:42;;;;;;;2.63;1.00;;;4.80;99.90;;;;;;5086916;28;20503;-66
2020/12/28 09:15:08;;;;;;;1.40;0.98;;;4.80;99.90;;;;;;5088978;28;20070;-66
2020/12/28 09:17:34;;;;;;;2.50;0.98;;;4.80;99.90;;;;;;5106789;28;20024;-65
2020/12/28 09:19:59;;;;;;;3.25;1.15;;;4.80;99.90;;;;;;5086404;28;20029;-65
2020/12/28 09:22:25;;;;;;;2.97;0.90;;;4.70;99.90;;;;;;5088599;28;20035;-66
2020/12/28 09:24:51;;;;;;;2.78;1.33;;;5.00;99.90;;;;;;5090148;28;20019;-65
2020/12/28 09:27:16;;;;;;;4.00;1.05;;;4.90;99.90;;;;;;5110060;28;20019;-65
2020/12/28 09:29:42;;;;;;;2.15;0.90;;;5.00;99.90;;;;;;5088093;28;20031;-65
2020/12/28 09:32:08;;;;;;;1.95;0.80;;;5.10;99.90;;;;;;5107980;28;20023;-65
2020/12/28 09:34:34;;;;;;;3.38;0.85;;;5.10;99.90;;;;;;5085436;28;20024;-65
2020/12/28 09:37:06;;;;;;;2.67;0.77;;;5.20;99.90;;;;;;5080101;28;20052;-65
2020/12/28 09:39:33;;;;;;;3.28;1.20;;;5.00;99.90;;;;;;5082523;28;20038;-65
2020/12/28 09:41:58;;;;;;;3.65;1.17;;;5.20;99.90;;;;;;5079408;28;20051;-65
2020/12/28 09:44:25;;;;;;;1.50;0.75;;;5.00;99.90;;;;;;5082779;28;20052;-65
2020/12/28 09:46:52;;;;;;;3.35;0.60;;;5.10;99.90;;;;;;5081636;28;20646;-65
2020/12/28 09:49:18;;;;;;;1.90;0.75;;;5.10;99.90;;;;;;5090893;28;20035;-66
2020/12/28 09:51:46;;;;;;;7.68;1.75;;;5.00;99.90;;;;;;5088308;28;20020;-65
2020/12/28 09:54:11;;;;;;;1.92;0.80;;;5.00;99.90;;;;;;5082170;28;20077;-65
2020/12/28 09:56:37;;;;;;;4.32;0.90;;;5.10;99.90;;;;;;5105671;28;20027;-65
2020/12/28 09:59:03;;;;;;;2.60;0.73;;;5.30;99.90;;;;;;5096023;28;20063;-65
2020/12/28 10:01:28;;;;;;;2.33;0.55;;;5.40;99.90;;;;;;5089026;28;20039;-65
2020/12/28 10:03:54;;;;;;;2.70;0.55;;;5.60;99.90;;;;;;5089726;28;20098;-66
2020/12/28 10:06:32;;;;;;;1.73;0.63;;;5.70;99.90;;;;;;5093258;28;20360;-65
2020/12/28 10:09:01;;;;;;;2.30;0.82;;;5.90;99.90;;;;;;5088893;28;20115;-65
2020/12/28 10:11:27;;;;;;;1.48;0.50;;;5.90;99.90;;;;;;5085969;28;20035;-65
2020/12/28 10:13:52;;;;;;;1.02;0.80;;;5.80;99.90;;;;;;5083681;28;20028;-65
2020/12/28 10:16:46;;;;;;;2.28;0.77;;;5.80;99.90;;;;;;5075193;28;20071;-65
2020/12/28 10:19:12;;;;;;;1.15;0.40;;;5.60;99.90;;;;;;5068874;28;20526;-64
2020/12/28 10:21:38;;;;;;;3.40;0.50;;;5.30;99.90;;;;;;5085639;28;20556;-64
2020/12/28 10:24:04;;;;;;;2.03;0.90;;;5.10;99.90;;;;;;5084991;28;20020;-71
2020/12/28 10:26:30;;;;;;;2.45;0.70;;;5.00;99.90;;;;;;5090106;28;20102;-72
2020/12/28 10:28:56;;;;;;;1.02;0.50;;;4.80;99.90;;;;;;5084542;28;20041;-64
2020/12/28 10:31:23;;;;;;;0.95;0.80;;;4.60;99.90;;;;;;5101512;28;20027;-64
2020/12/28 10:33:50;;;;;;;1.40;0.63;;;4.60;99.90;;;;;;5098139;28;20055;-68
2020/12/28 10:36:24;;;;;;;1.45;0.47;;;4.60;99.90;;;;;;5091422;28;20050;-69
2020/12/28 10:38:52;;;;;;;0.50;0.32;;;4.80;99.90;;;;;;5088943;28;20317;-70
2020/12/28 10:41:26;;;;;;;1.85;0.50;;;4.80;99.90;;;;;;5090465;28;20051;-64
2020/12/28 10:43:52;;;;;;;1.05;0.77;;;4.80;99.90;;;;;;5085163;28;20340;-65
2020/12/28 10:46:18;;;;;;;1.38;0.73;;;4.80;99.90;;;;;;5084082;28;20027;-65
2020/12/28 10:48:44;;;;;;;0.82;0.60;;;4.80;99.90;;;;;;5089638;28;20024;-64
2020/12/28 10:51:11;;;;;;;1.48;0.50;;;4.90;99.90;;;;;;5087293;28;20009;-63
2020/12/28 10:53:37;;;;;;;1.60;0.70;;;4.70;99.90;;;;;;5093128;28;20236;-63
2020/12/28 10:56:05;;;;;;;2.13;0.90;;;5.00;99.90;;;;;;5083110;28;20029;-64
2020/12/28 10:58:31;;;;;;;0.90;0.70;;;5.00;99.90;;;;;;5075627;28;20517;-65
2020/12/28 11:00:57;;;;;;;1.00;0.80;;;5.00;99.90;;;;;;5089696;28;20035;-64
2020/12/28 11:03:22;;;;;;;1.38;0.73;;;5.10;99.90;;;;;;5095664;28;20028;-64
2020/12/28 11:05:48;;;;;;;1.10;0.95;;;5.20;99.90;;;;;;5092378;28;20403;-64
2020/12/28 11:08:14;;;;;;;0.88;0.70;;;5.40;99.90;;;;;;5094935;28;20553;-64
2020/12/28 11:10:40;;;;;;;1.98;1.02;;;5.60;99.90;;;;;;5090498;28;20031;-64
2020/12/28 11:13:07;;;;;;;0.70;0.70;;;5.60;99.90;;;;;;5094064;28;20085;-63
2020/12/28 11:15:32;;;;;;;1.25;0.60;;;6.10;99.90;;;;;;5076767;28;20111;-67
2020/12/28 11:17:58;;;;;;;1.10;0.68;;;6.20;99.90;;;;;;5080816;28;20131;-63
2020/12/28 11:20:24;;;;;;;0.93;0.70;;;5.90;99.90;;;;;;5079163;28;20511;-65
2020/12/28 11:22:50;;;;;;;1.63;0.80;;;5.80;99.90;;;;;;5072894;28;20058;-64
2020/12/28 11:25:16;;;;;;;1.20;0.40;;;5.90;99.90;;;;;;5073192;28;20437;-67
2020/12/28 11:27:42;;;;;;;1.00;0.70;;;5.70;99.90;;;;;;5070028;28;20560;-71
2020/12/28 11:30:08;;;;;;;1.95;0.70;;;5.80;99.90;;;;;;5072993;28;20016;-63
2020/12/28 11:32:34;;;;;;;1.00;0.60;;;5.80;99.90;;;;;;5085837;28;20016;-62
2020/12/28 11:35:00;;;;;;;0.77;0.40;;;5.80;99.90;;;;;;5080058;28;20671;-62
2020/12/28 11:37:25;;;;;;;2.38;0.65;;;5.70;99.90;;;;;;5083890;28;20103;-62
2020/12/28 11:39:51;;;;;;;1.33;0.70;;;5.90;99.90;;;;;;5083731;28;20032;-63
2020/12/28 11:42:18;;;;;;;0.90;0.57;;;5.90;99.90;;;;;;5090599;28;20038;-63
2020/12/28 11:44:44;;;;;;;1.77;0.57;;;5.90;99.90;;;;;;5087740;28;20448;-63
2020/12/28 11:47:10;;;;;;;1.52;0.70;;;6.00;99.90;;;;;;5090843;28;20443;-63
2020/12/28 11:49:36;;;;;;;1.63;0.90;;;6.10;99.90;;;;;;5081467;28;20027;-63
2020/12/28 11:52:02;;;;;;;0.85;0.32;;;6.00;99.90;;;;;;5090724;28;20445;-62
2020/12/28 11:54:28;;;;;;;2.22;0.80;;;5.80;99.90;;;;;;5088139;28;20020;-62
2020/12/28 11:56:53;;;;;;;1.42;0.70;;;5.90;99.90;;;;;;5090566;28;20542;-62
2020/12/28 11:59:19;;;;;;;3.60;0.85;;;5.80;99.90;;;;;;5082183;28;20062;-62
2020/12/28 12:01:48;;;;;;;2.35;1.02;;;5.70;99.90;;;;;;5090314;28;20031;-62
2020/12/28 12:04:15;;;;;;;2.17;0.77;;;5.70;99.90;;;;;;5083776;28;20025;-62
2020/12/28 12:06:41;;;;;;;3.03;0.90;;;5.60;99.90;;;;;;5090399;28;20031;-62
2020/12/28 12:09:13;;;;;;;3.67;1.00;;;5.50;99.90;;;;;;5084648;28;20771;-62
2020/12/28 12:11:44;;;;;;;4.22;0.90;;;5.50;99.90;;;;;;5085351;28;20024;-72
2020/12/28 12:14:12;;;;;;;5.35;1.75;;;5.40;99.90;;;;;;5094790;28;20021;-65
2020/12/28 12:16:38;;;;;;;4.50;1.00;;;5.30;99.90;;;;;;5088942;28;20021;-65
2020/12/28 12:19:04;;;;;;;2.60;1.17;;;5.40;99.90;;;;;;5093299;28;20073;-68
2020/12/28 12:21:31;;;;;;;2.25;0.70;;;5.30;99.90;;;;;;5109500;28;20024;-65
2020/12/28 12:23:56;;;;;;;3.95;1.00;;;5.50;99.90;;;;;;5100074;28;20079;-62
2020/12/28 12:26:23;;;;;;;2.92;1.50;;;5.60;99.90;;;;;;5098749;28;20082;-62
2020/12/28 12:28:51;;;;;;;2.30;1.25;;;5.70;99.90;;;;;;5084552;28;20038;-63
2020/12/28 12:31:17;;;;;;;3.30;0.98;;;5.60;99.90;;;;;;5089697;28;20066;-64
2020/12/28 12:33:44;;;;;;;2.70;1.02;;;5.60;99.90;;;;;;5085833;28;20103;-62
2020/12/28 12:36:10;;;;;;;3.92;1.50;;;5.40;99.90;;;;;;5090281;28;20048;-63
2020/12/28 12:38:36;;;;;;;3.97;1.20;;;5.40;99.90;;;;;;5084618;28;20471;-65
2020/12/28 12:41:03;;;;;;;3.35;1.70;;;5.40;99.90;;;;;;5090138;28;20124;-63
2020/12/28 12:43:28;;;;;;;4.03;1.50;;;5.40;99.90;;;;;;5084336;28;20111;-63
2020/12/28 12:45:54;;;;;;;5.03;1.33;;;5.40;99.90;;;;;;5089380;28;20104;-63
2020/12/28 12:48:20;;;;;;;2.67;1.08;;;5.30;99.90;;;;;;5083658;28;20033;-63
2020/12/28 12:50:47;;;;;;;2.53;1.52;;;5.40;99.90;;;;;;5079255;28;20028;-63
2020/12/28 12:53:12;;;;;;;1.55;1.20;;;5.50;99.90;;;;;;5086155;28;20453;-63
2020/12/28 12:55:41;;;;;;;4.90;1.60;;;5.30;99.90;;;;;;5100511;28;20023;-64